Time;durP1;ratioP1;P1;durP2;ratioP2;P2;SDS_P1;SDS_P2;PMS_P1;PMS_P2;Temp;Humidity;BMP_temperature;BMP_pressure;BME280_temperature;BME280_humidity;BME280_pressure;Samples;Min_cycle;Max_cycle;Signal;HPM_P1;HPM_P2
2023/04/14 00:01:32;;;;;;;;;;;;;;;6.54;100.00;99082.41;5072375;28;814;-72
2023/04/14 00:03:59;;;;;;;;;;;;;;;6.45;100.00;99082.03;5072341;28;834;-72
2023/04/14 00:06:26;;;;;;;;;;;;;;;6.31;100.00;99082.78;5071138;28;1274;-73
2023/04/14 00:08:52;;;;;;;;;;;;;;;6.27;100.00;99084.75;5072408;28;1035;-72
2023/04/14 00:11:20;;;;;;;;;;;;;;;6.31;100.00;99082.78;5072183;28;1419;-72
2023/04/14 00:13:47;;;;;;;;;;;;;;;6.28;100.00;99076.13;5072275;28;889;-73
2023/04/14 00:16:13;;;;;;;;;;;;;;;6.28;100.00;99073.38;5072227;28;1973;-73
2023/04/14 00:18:40;;;;;;;;;;;;;;;6.34;100.00;99076.53;5072134;28;862;-73
2023/04/14 00:21:07;;;;;;;;;;;;;;;6.40;100.00;99068.69;5072804;28;817;-72
2023/04/14 00:23:34;;;;;;;;;;;;;;;6.53;100.00;99078.13;5072315;28;834;-72
2023/04/14 00:26:00;;;;;;;;;;;;;;;6.65;100.00;99072.19;5071014;28;1504;-72
2023/04/14 00:28:26;;;;;;;;;;;;;;;6.78;100.00;99080.81;5071857;28;818;-71
2023/04/14 00:30:53;;;;;;;;;;;;;;;6.93;100.00;99082.38;5071914;28;802;-72
2023/04/14 00:33:19;;;;;;;;;;;;;;;7.10;100.00;99072.50;5071856;28;854;-71
2023/04/14 00:35:46;;;;;;;;;;;;;;;7.19;100.00;99082.31;5071667;28;2009;-72
2023/04/14 00:38:12;;;;;;;;;;;;;;;7.15;100.00;99076.84;5071721;28;880;-72
2023/04/14 00:40:39;;;;;;;;;;;;;;;7.11;100.00;99076.06;5071603;28;818;-71
2023/04/14 00:43:05;;;;;;;;;;;;;;;7.04;100.00;99076.06;5071674;28;786;-71
2023/04/14 00:45:35;;;;;;;;;;;;;;;6.95;100.00;99070.97;5071626;28;810;-71
2023/04/14 00:48:01;;;;;;;;;;;;;;;6.82;100.00;99073.38;5071645;28;837;-71
2023/04/14 00:50:28;;;;;;;;;;;;;;;6.72;100.00;99072.22;5071587;28;822;-71
2023/04/14 00:52:55;;;;;;;;;;;;;;;6.68;100.00;99067.91;5071554;28;889;-72
2023/04/14 00:55:22;;;;;;;;;;;;;;;6.66;100.00;99067.53;5070039;28;1893;-72
2023/04/14 00:57:48;;;;;;;;;;;;;;;6.60;100.00;99069.88;5071436;28;822;-71
2023/04/14 01:00:15;;;;;;;;;;;;;;;6.50;100.00;99071.44;5071703;28;806;-72
2023/04/14 01:02:42;;;;;;;;;;;;;;;6.33;100.00;99078.47;5071436;28;837;-72
2023/04/14 01:05:08;;;;;;;;;;;;;;;6.29;100.00;99069.47;5071482;28;873;-71
2023/04/14 01:07:36;;;;;;;;;;;;;;;6.30;100.00;99075.75;5072424;28;809;-71
2023/04/14 01:10:03;;;;;;;;;;;;;;;6.29;100.00;99072.22;5075644;28;1365;-71
2023/04/14 01:12:47;;;;;;;;;;;;;;;6.26;100.00;99058.50;5075536;28;841;-71
2023/04/14 01:15:19;;;;;;;;;;;;;;;6.28;100.00;99056.16;5075347;28;1958;-71
2023/04/14 01:17:53;;;;;;;;;;;;;;;6.28;100.00;99056.91;5075449;28;805;-72
2023/04/14 01:20:38;;;;;;;;;;;;;;;6.27;100.00;99060.84;5075391;28;850;-72
2023/04/14 01:23:06;;;;;;;;;;;;;;;6.30;100.00;99064.78;5075514;28;814;-71
2023/04/14 01:25:53;;;;;;;;;;;;;;;6.28;100.00;99065.16;5073866;28;1197;-71
2023/04/14 01:28:40;;;;;;;;;;;;;;;6.24;100.00;99058.88;5075427;28;873;-71
2023/04/14 01:31:22;;;;;;;;;;;;;;;6.39;100.00;99065.16;5075403;28;880;-71
2023/04/14 01:33:53;;;;;;;;;;;;;;;6.41;100.00;99068.31;5073730;28;1242;-71
2023/04/14 01:36:26;;;;;;;;;;;;;;;6.30;100.00;99067.53;5075247;28;1885;-71
2023/04/14 01:38:54;;;;;;;;;;;;;;;6.26;100.00;99070.25;5075064;28;829;-71
2023/04/14 01:41:21;;;;;;;;;;;;;;;6.20;100.00;99080.03;5074956;28;798;-71
2023/04/14 01:43:51;;;;;;;;;;;;;;;6.13;100.00;99069.84;5074971;28;827;-71
2023/04/14 01:46:18;;;;;;;;;;;;;;;6.07;100.00;99065.13;5074824;28;874;-71
2023/04/14 01:48:46;;;;;;;;;;;;;;;6.07;100.00;99063.16;5074878;28;794;-72
2023/04/14 01:51:13;;;;;;;;;;;;;;;6.08;100.00;99070.25;5074672;28;860;-72
2023/04/14 01:53:41;;;;;;;;;;;;;;;6.28;100.00;99073.38;5074723;28;965;-71
2023/04/14 01:56:10;;;;;;;;;;;;;;;6.48;100.00;99073.00;5074623;28;1957;-71
2023/04/14 01:58:38;;;;;;;;;;;;;;;6.55;100.00;99078.50;5073308;28;1281;-71
2023/04/14 02:01:05;;;;;;;;;;;;;;;6.46;100.00;99076.13;5074899;28;873;-70
2023/04/14 02:03:32;;;;;;;;;;;;;;;6.30;100.00;99076.53;5074525;28;834;-71
2023/04/14 02:06:01;;;;;;;;;;;;;;;6.27;100.00;99085.56;5074497;28;853;-71
2023/04/14 02:08:29;;;;;;;;;;;;;;;6.23;100.00;99078.47;5074438;28;917;-71
2023/04/14 02:10:56;;;;;;;;;;;;;;;6.11;100.00;99074.16;5074224;28;1310;-72
2023/04/14 02:13:23;;;;;;;;;;;;;;;6.01;100.00;99077.66;5073051;28;1293;-72
2023/04/14 02:15:50;;;;;;;;;;;;;;;5.95;100.00;99069.03;5074314;28;1917;-72
2023/04/14 02:18:18;;;;;;;;;;;;;;;5.87;100.00;99075.66;5074122;28;806;-72
2023/04/14 02:20:46;;;;;;;;;;;;;;;5.82;100.00;99060.34;5074213;28;778;-72
2023/04/14 02:23:14;;;;;;;;;;;;;;;5.96;100.00;99067.88;5074067;28;862;-71
2023/04/14 02:25:47;;;;;;;;;;;;;;;6.12;100.00;99067.47;5074214;28;921;-72
2023/04/14 02:28:17;;;;;;;;;;;;;;;6.27;100.00;99065.53;5073862;28;1459;-71
2023/04/14 02:30:46;;;;;;;;;;;;;;;6.38;100.00;99069.09;5074088;28;881;-73
2023/04/14 02:33:16;;;;;;;;;;;;;;;6.48;100.00;99071.03;5074022;28;878;-71
2023/04/14 02:36:02;;;;;;;;;;;;;;;6.49;100.00;99064.38;5073939;28;1889;-71
2023/04/14 02:38:29;;;;;;;;;;;;;;;6.50;100.00;99067.91;5063283;28;1189;-71
2023/04/14 02:40:57;;;;;;;;;;;;;;;6.51;100.00;99059.28;5073862;28;792;-72
2023/04/14 02:43:30;;;;;;;;;;;;;;;6.49;100.00;99064.38;5073861;28;885;-72
2023/04/14 02:45:59;;;;;;;;;;;;;;;6.42;100.00;99058.09;5073769;28;853;-72
2023/04/14 02:48:26;;;;;;;;;;;;;;;6.40;100.00;99049.47;5072399;28;1345;-72
2023/04/14 02:50:54;;;;;;;;;;;;;;;6.33;100.00;99061.22;5073705;28;790;-72
2023/04/14 02:53:22;;;;;;;;;;;;;;;6.20;100.00;99055.34;5073869;28;842;-71
2023/04/14 02:55:52;;;;;;;;;;;;;;;6.05;100.00;99051.03;5073903;28;1889;-71
2023/04/14 02:58:20;;;;;;;;;;;;;;;5.90;100.00;99048.22;5073463;28;801;-72
2023/04/14 03:00:49;;;;;;;;;;;;;;;5.85;100.00;99053.31;5073601;28;873;-71
2023/04/14 03:03:17;;;;;;;;;;;;;;;5.76;100.00;99056.44;5073378;28;896;-71
2023/04/14 03:05:45;;;;;;;;;;;;;;;5.74;100.00;99053.31;5073464;28;896;-71
2023/04/14 03:08:13;;;;;;;;;;;;;;;5.73;100.00;99054.47;5071965;28;1302;-70
2023/04/14 03:10:41;;;;;;;;;;;;;;;5.78;100.00;99054.06;5073125;28;1301;-71
2023/04/14 03:13:08;;;;;;;;;;;;;;;5.78;100.00;99065.03;5073363;28;901;-70
2023/04/14 03:15:36;;;;;;;;;;;;;;;5.93;100.00;99057.63;5073052;28;2024;-71
2023/04/14 03:18:03;;;;;;;;;;;;;;;6.06;100.00;99069.03;5073207;28;809;-71
2023/04/14 03:20:30;;;;;;;;;;;;;;;6.12;100.00;99060.06;5073109;28;877;-72
2023/04/14 03:23:00;;;;;;;;;;;;;;;6.16;100.00;99071.03;5072935;28;834;-72
2023/04/14 03:25:27;;;;;;;;;;;;;;;6.11;100.00;99058.47;5073178;28;870;-72
2023/04/14 03:27:58;;;;;;;;;;;;;;;6.09;100.00;99060.81;5072900;28;919;-71
2023/04/14 03:30:26;;;;;;;;;;;;;;;6.06;100.00;99058.88;5072378;28;822;-71
2023/04/14 03:32:53;;;;;;;;;;;;;;;6.02;100.00;99066.31;5072842;28;814;-72
2023/04/14 03:35:21;;;;;;;;;;;;;;;5.98;100.00;99067.47;5072764;28;1939;-72
2023/04/14 03:37:50;;;;;;;;;;;;;;;5.92;100.00;99062.34;5072797;28;833;-72
2023/04/14 03:40:17;;;;;;;;;;;;;;;6.02;100.00;99058.09;5071721;28;818;-71
2023/04/14 03:42:45;;;;;;;;;;;;;;;6.23;100.00;99057.31;5072873;28;790;-71
2023/04/14 03:45:11;;;;;;;;;;;;;;;6.40;100.00;99074.97;5072608;28;900;-71
2023/04/14 03:47:38;;;;;;;;;;;;;;;6.56;100.00;99060.06;5073033;28;814;-72
2023/04/14 03:50:08;;;;;;;;;;;;;;;6.83;100.00;99068.66;5072748;28;822;-72
2023/04/14 03:52:35;;;;;;;;;;;;;;;6.90;100.00;99063.94;5072355;28;853;-72
2023/04/14 03:55:05;;;;;;;;;;;;;;;6.94;100.00;99067.47;5070998;28;1893;-72
2023/04/14 03:57:32;;;;;;;;;;;;;;;7.09;100.00;99065.47;5072408;28;917;-72
2023/04/14 04:00:04;;;;;;;;;;;;;;;7.14;100.00;99070.53;5072304;28;865;-72
2023/04/14 04:02:31;;;;;;;;;;;;;;;7.23;100.00;99072.88;5072328;28;890;-72
2023/04/14 04:04:58;;;;;;;;;;;;;;;7.37;100.00;99074.81;5072167;28;863;-72
2023/04/14 04:07:25;;;;;;;;;;;;;;;7.50;100.00;99081.41;5072237;28;838;-72
2023/04/14 04:09:52;;;;;;;;;;;;;;;7.64;100.00;99086.09;5072316;28;1236;-72
2023/04/14 04:12:20;;;;;;;;;;;;;;;7.77;100.00;99089.19;5072055;28;861;-72
2023/04/14 04:14:46;;;;;;;;;;;;;;;7.90;100.00;99086.75;5071991;28;903;-72
2023/04/14 04:17:15;;;;;;;;;;;;;;;8.03;100.00;99087.06;5071902;28;1969;-71
2023/04/14 04:19:48;;;;;;;;;;;;;;;8.19;100.00;99101.09;5071951;28;845;-72
2023/04/14 04:22:16;;;;;;;;;;;;;;;8.34;100.00;99105.34;5072447;28;818;-72
2023/04/14 04:24:44;;;;;;;;;;;;;;;8.51;100.00;99098.16;5072137;28;822;-72
2023/04/14 04:27:11;;;;;;;;;;;;;;;8.68;100.00;99096.44;5072101;28;881;-71
2023/04/14 04:29:38;;;;;;;;;;;;;;;8.90;100.00;99107.28;5072065;28;869;-71
2023/04/14 04:32:05;;;;;;;;;;;;;;;9.12;100.00;99096.81;5070586;28;1162;-71
2023/04/14 04:34:32;;;;;;;;;;;;;;;9.32;100.00;99100.53;5072026;28;881;-71
2023/04/14 04:37:01;;;;;;;;;;;;;;;9.49;100.00;99096.00;5070549;28;1890;-72
2023/04/14 04:39:28;;;;;;;;;;;;;;;9.64;100.00;99101.34;5071647;28;949;-72
2023/04/14 04:42:01;;;;;;;;;;;;;;;9.77;100.00;99096.84;5070895;28;874;-71
2023/04/14 04:44:28;;;;;;;;;;;;;;;9.91;100.00;99099.44;5071618;28;838;-72
2023/04/14 04:46:55;;;;;;;;;;;;;;;10.03;100.00;99103.63;5070340;28;1365;-71
2023/04/14 04:49:22;;;;;;;;;;;;;;;10.19;100.00;99106.53;5071682;28;877;-71
2023/04/14 04:51:49;;;;;;;;;;;;;;;10.38;100.00;99107.84;5071497;28;837;-72
2023/04/14 04:54:16;;;;;;;;;;;;;;;10.63;100.00;99112.22;5071536;28;877;-71
2023/04/14 04:56:43;;;;;;;;;;;;;;;10.79;100.00;99111.56;5071494;28;1890;-71
2023/04/14 04:59:09;;;;;;;;;;;;;;;10.96;100.00;99107.69;5071424;28;896;-71
2023/04/14 05:01:36;;;;;;;;;;;;;;;11.15;100.00;99105.41;5071572;28;885;-72
2023/04/14 05:04:03;;;;;;;;;;;;;;;11.31;100.00;99110.22;5071417;28;845;-71
2023/04/14 05:06:30;;;;;;;;;;;;;;;11.52;100.00;99103.50;5071468;28;826;-71
2023/04/14 05:08:56;;;;;;;;;;;;;;;11.72;100.00;99107.06;5071672;28;1036;-71
2023/04/14 05:11:23;;;;;;;;;;;;;;;11.90;100.00;99101.16;5070951;28;1227;-71
2023/04/14 05:13:49;;;;;;;;;;;;;;;12.18;100.00;99099.78;5070072;28;1204;-71
2023/04/14 05:16:17;;;;;;;;;;;;;;;12.39;100.00;99100.47;5071422;28;1905;-71
2023/04/14 05:18:43;;;;;;;;;;;;;;;12.55;100.00;99092.19;5071280;28;814;-71
2023/04/14 05:21:14;;;;;;;;;;;;;;;12.73;100.00;99093.72;5071523;28;892;-71
2023/04/14 05:23:42;;;;;;;;;;;;;;;12.80;100.00;99096.31;5071250;28;970;-71
2023/04/14 05:32:14;;;;;;;;;;;;;;;12.61;100.00;99089.66;5071692;28;704;-71
2023/04/14 05:34:40;;;;;;;;;;;;;;;12.62;100.00;99089.22;5071117;28;818;-71
2023/04/14 05:37:07;;;;;;;;;;;;;;;12.80;100.00;99091.56;5070957;28;1953;-70
2023/04/14 05:39:34;;;;;;;;;;;;;;;12.94;100.00;99087.63;5071041;28;842;-70
2023/04/14 05:42:00;;;;;;;;;;;;;;;13.06;100.00;99084.16;5070978;28;818;-70
2023/04/14 05:44:28;;;;;;;;;;;;;;;13.15;100.00;99079.97;5071062;28;849;-71
2023/04/14 05:46:54;;;;;;;;;;;;;;;13.06;100.00;99078.59;5070989;28;862;-70
2023/04/14 05:49:20;;;;;;;;;;;;;;;13.02;100.00;99075.13;5070997;28;838;-71
2023/04/14 05:51:47;;;;;;;;;;;;;;;13.05;100.00;99074.25;5070969;28;826;-70
2023/04/14 05:54:14;;;;;;;;;;;;;;;13.24;100.00;99072.56;5072906;28;822;-70
2023/04/14 05:56:41;;;;;;;;;;;;;;;13.45;100.00;99070.44;5074620;28;1949;-70
2023/04/14 05:59:07;;;;;;;;;;;;;;;13.86;100.00;99077.97;5074580;28;881;-70
2023/04/14 06:01:34;;;;;;;;;;;;;;;14.25;100.00;99069.66;5074465;28;887;-71
2023/04/14 06:04:02;;;;;;;;;;;;;;;14.62;100.00;99076.44;5074457;28;834;-70
2023/04/14 06:06:28;;;;;;;;;;;;;;;15.24;100.00;99069.56;5074531;28;917;-70
2023/04/14 06:08:55;;;;;;;;;;;;;;;15.76;100.00;99070.09;5074281;28;886;-70
2023/04/14 06:11:22;;;;;;;;;;;;;;;15.79;100.00;99064.38;5073025;28;1448;-70
2023/04/14 06:13:49;;;;;;;;;;;;;;;15.60;100.00;99066.25;5074305;28;799;-70
2023/04/14 06:16:16;;;;;;;;;;;;;;;15.66;100.00;99070.00;5072871;28;1973;-70
2023/04/14 06:18:42;;;;;;;;;;;;;;;15.84;100.00;99066.56;5074196;28;807;-70
2023/04/14 06:21:09;;;;;;;;;;;;;;;16.19;100.00;99062.84;5074184;28;849;-70
2023/04/14 06:23:36;;;;;;;;;;;;;;;16.46;97.71;99057.38;5074152;28;873;-70
2023/04/14 06:26:04;;;;;;;;;;;;;;;16.87;96.54;99060.88;5074070;28;853;-69
2023/04/14 06:28:31;;;;;;;;;;;;;;;17.12;94.24;99065.38;5072813;28;1249;-71
2023/04/14 06:30:59;;;;;;;;;;;;;;;17.72;92.19;99066.72;5074073;28;806;-70
2023/04/14 06:33:26;;;;;;;;;;;;;;;18.04;88.14;99064.47;5073988;28;818;-71
2023/04/14 06:35:52;;;;;;;;;;;;;;;17.94;88.19;99066.53;5073916;28;1886;-70
2023/04/14 06:38:18;;;;;;;;;;;;;;;17.89;88.03;99075.56;5073910;28;826;-69
2023/04/14 06:40:45;;;;;;;;;;;;;;;18.16;88.54;99071.91;5072617;28;1302;-69
2023/04/14 06:43:12;;;;;;;;;;;;;;;18.39;84.60;99072.41;5072509;28;1218;-70
2023/04/14 06:45:39;;;;;;;;;;;;;;;18.30;86.13;99070.41;5073885;28;794;-70
2023/04/14 06:48:06;;;;;;;;;;;;;;;18.34;85.16;99070.25;5073595;28;814;-70
2023/04/14 06:50:33;;;;;;;;;;;;;;;18.09;85.47;99051.88;5073695;28;857;-70
2023/04/14 06:53:00;;;;;;;;;;;;;;;18.00;85.61;99057.50;5073707;28;838;-69
2023/04/14 06:55:26;;;;;;;;;;;;;;;18.23;86.77;99058.81;5073504;28;1956;-71
2023/04/14 06:57:53;;;;;;;;;;;;;;;17.91;86.01;99052.72;5073574;28;880;-70
2023/04/14 07:00:20;;;;;;;;;;;;;;;17.82;88.58;99047.94;5073537;28;1028;-70
2023/04/14 07:02:46;;;;;;;;;;;;;;;18.00;86.98;99052.69;5073436;28;869;-71
2023/04/14 07:05:12;;;;;;;;;;;;;;;18.15;88.36;99047.97;5072537;28;803;-70
2023/04/14 07:07:39;;;;;;;;;;;;;;;17.96;86.12;99052.06;5073384;28;990;-71
2023/04/14 07:10:05;;;;;;;;;;;;;;;17.83;85.37;99049.47;5073430;28;1325;-71
2023/04/14 07:12:32;;;;;;;;;;;;;;;17.89;86.80;99046.84;5072029;28;1217;-70
2023/04/14 07:14:59;;;;;;;;;;;;;;;18.34;85.87;99047.88;5073166;28;888;-71
2023/04/14 07:17:26;;;;;;;;;;;;;;;18.81;83.01;99042.81;5073103;28;1968;-71
2023/04/14 07:19:52;;;;;;;;;;;;;;;19.91;81.53;99043.84;5073229;28;810;-71
2023/04/14 07:22:19;;;;;;;;;;;;;;;20.33;80.42;99043.47;5073362;28;810;-71
2023/04/14 07:24:45;;;;;;;;;;;;;;;20.36;79.08;99044.53;5073359;28;990;-70
2023/04/14 07:27:15;;;;;;;;;;;;;;;20.43;79.12;99038.50;5072964;28;802;-70
2023/04/14 07:29:41;;;;;;;;;;;;;;;20.95;76.16;99038.69;5072907;28;790;-70
2023/04/14 07:32:08;;;;;;;;;;;;;;;21.21;73.89;99035.16;5072824;28;842;-70
2023/04/14 07:34:35;;;;;;;;;;;;;;;20.93;73.91;99034.81;5072828;28;811;-70
2023/04/14 07:37:01;;;;;;;;;;;;;;;20.70;75.24;99039.41;5072707;28;1882;-70
2023/04/14 07:39:28;;;;;;;;;;;;;;;20.94;74.59;99028.72;5072706;28;847;-71
2023/04/14 07:41:57;;;;;;;;;;;;;;;20.90;74.83;99024.56;5071375;28;1202;-70
2023/04/14 07:44:23;;;;;;;;;;;;;;;20.75;76.96;99036.66;5071362;28;1680;-69
2023/04/14 07:46:50;;;;;;;;;;;;;;;20.81;74.91;99039.53;5072445;28;1006;-70
2023/04/14 07:49:17;;;;;;;;;;;;;;;21.22;73.57;99033.88;5072467;28;830;-70
2023/04/14 07:51:44;;;;;;;;;;;;;;;20.95;73.90;99037.91;5072410;28;820;-70
2023/04/14 07:54:11;;;;;;;;;;;;;;;20.90;75.72;99033.75;5072503;28;873;-70
2023/04/14 07:56:38;;;;;;;;;;;;;;;20.88;75.48;99036.28;5072236;28;1885;-70
2023/04/14 07:59:04;;;;;;;;;;;;;;;21.22;73.09;99022.63;5071316;28;1229;-70
2023/04/14 08:01:30;;;;;;;;;;;;;;;20.91;75.51;99024.09;5072214;28;829;-70
2023/04/14 08:03:56;;;;;;;;;;;;;;;20.40;77.40;99031.84;5072246;28;806;-70
2023/04/14 08:06:22;;;;;;;;;;;;;;;20.48;77.04;99020.19;5072305;28;861;-70
2023/04/14 08:08:49;;;;;;;;;;;;;;;20.04;77.31;99029.50;5072005;28;992;-70
2023/04/14 08:11:15;;;;;;;;;;;;;;;19.95;79.81;99024.75;5072057;28;1303;-70
2023/04/14 08:13:43;;;;;;;;;;;;;;;19.89;81.74;99026.72;5072068;28;821;-70
2023/04/14 08:16:09;;;;;;;;;;;;;;;20.03;80.21;99016.72;5071633;28;1971;-70
2023/04/14 08:18:35;;;;;;;;;;;;;;;20.30;79.55;99018.41;5071741;28;802;-70
2023/04/14 08:21:02;;;;;;;;;;;;;;;20.30;79.21;99019.19;5071974;28;892;-70
2023/04/14 08:23:29;;;;;;;;;;;;;;;20.48;78.37;99018.13;5071892;28;889;-70
2023/04/14 08:25:55;;;;;;;;;;;;;;;20.57;78.25;99012.44;5071903;28;826;-69
2023/04/14 08:28:21;;;;;;;;;;;;;;;20.36;78.14;99008.81;5071594;28;1318;-70
2023/04/14 08:30:48;;;;;;;;;;;;;;;20.59;79.46;99006.34;5071890;28;885;-70
2023/04/14 08:33:15;;;;;;;;;;;;;;;20.74;78.37;98995.00;5071864;28;827;-70
2023/04/14 08:35:41;;;;;;;;;;;;;;;20.67;80.08;98995.44;5071885;28;1878;-70
2023/04/14 08:38:08;;;;;;;;;;;;;;;20.66;79.24;98996.72;5070566;28;1483;-70
2023/04/14 08:40:41;;;;;;;;;;;;;;;20.45;79.02;98995.91;5072008;28;872;-69
2023/04/14 08:43:09;;;;;;;;;;;;;;;20.21;79.86;98996.88;5070405;28;1351;-70
2023/04/14 08:45:36;;;;;;;;;;;;;;;20.12;81.38;98996.97;5071607;28;900;-70
2023/04/14 08:48:03;;;;;;;;;;;;;;;20.26;81.66;98993.34;5071587;28;798;-70
2023/04/14 08:50:45;;;;;;;;;;;;;;;20.40;79.97;98988.97;5071569;28;871;-70
2023/04/14 08:53:12;;;;;;;;;;;;;;;20.77;80.70;98989.19;5071653;28;897;-70
2023/04/14 08:55:42;;;;;;;;;;;;;;;21.05;79.94;98990.78;5071718;28;1890;-70
2023/04/14 08:58:11;;;;;;;;;;;;;;;21.27;79.49;98985.38;5071522;28;897;-70
2023/04/14 09:00:38;;;;;;;;;;;;;;;21.93;77.83;98992.09;5071565;28;946;-71
2023/04/14 09:03:05;;;;;;;;;;;;;;;21.76;76.62;98985.56;5071433;28;861;-70
2023/04/14 09:05:32;;;;;;;;;;;;;;;21.89;78.93;98983.13;5071527;28;806;-70
2023/04/14 09:07:59;;;;;;;;;;;;;;;22.32;74.78;98986.00;5071640;28;889;-70
2023/04/14 09:10:29;;;;;;;;;;;;;;;22.60;73.57;98980.50;5071271;28;1422;-69
2023/04/14 09:12:55;;;;;;;;;;;;;;;22.83;73.41;98986.22;5071425;28;806;-71
2023/04/14 09:15:23;;;;;;;;;;;;;;;23.10;71.95;98981.94;5071327;28;1905;-71
2023/04/14 09:17:49;;;;;;;;;;;;;;;23.23;69.92;98985.03;5069888;28;1238;-71
2023/04/14 09:20:16;;;;;;;;;;;;;;;23.40;71.27;98975.84;5071111;28;1448;-71
2023/04/14 09:22:43;;;;;;;;;;;;;;;24.31;70.77;98968.84;5071306;28;837;-71
2023/04/14 09:25:10;;;;;;;;;;;;;;;24.57;66.79;98977.00;5071258;28;901;-73
2023/04/14 09:27:37;;;;;;;;;;;;;;;23.99;68.30;98972.00;5069737;28;1313;-73
2023/04/14 09:30:04;;;;;;;;;;;;;;;22.99;70.41;98974.22;5073271;28;1279;-73
2023/04/14 09:32:31;;;;;;;;;;;;;;;22.38;73.39;98981.16;5073866;28;1284;-72
2023/04/14 09:35:03;;;;;;;;;;;;;;;22.37;74.63;98982.41;5075099;28;889;-72
2023/04/14 09:37:41;;;;;;;;;;;;;;;22.88;72.91;98985.47;5073698;28;1890;-72
2023/04/14 10:12:11;;;;;;;;;;;;;;;21.76;72.79;98977.94;5033846;28;1545;-72
2023/04/14 10:14:37;;;;;;;;;;;;;;;21.66;72.98;98968.13;5034489;28;893;-71
2023/04/14 10:17:04;;;;;;;;;;;;;;;21.75;73.78;98975.59;5034352;28;1977;-72
2023/04/14 10:19:31;;;;;;;;;;;;;;;21.84;74.18;98971.84;5034443;28;882;-70
2023/04/14 10:21:58;;;;;;;;;;;;;;;21.69;73.90;98964.31;5034439;28;881;-71
2023/04/14 10:24:24;;;;;;;;;;;;;;;21.88;73.94;98963.94;5034228;28;806;-70
2023/04/14 10:26:51;;;;;;;;;;;;;;;22.13;72.89;98963.06;5034288;28;802;-70
2023/04/14 10:29:18;;;;;;;;;;;;;;;22.49;67.68;98972.00;5016374;28;1412;-70
2023/04/14 10:31:47;;;;;;;;;;;;;;;23.00;68.37;98977.78;5034062;28;879;-70
2023/04/14 10:34:17;;;;;;;;;;;;;;;23.06;65.38;98977.84;5034135;28;919;-71
2023/04/14 10:36:43;;;;;;;;;;;;;;;22.96;66.15;98974.47;5034172;28;1885;-69
2023/04/14 10:39:11;;;;;;;;;;;;;;;23.15;65.02;98969.16;5032342;28;1109;-71
2023/04/14 10:41:46;;;;;;;;;;;;;;;23.00;64.29;98969.34;5033217;28;834;-71
2023/04/14 10:44:22;;;;;;;;;;;;;;;22.79;64.32;98972.38;5033914;28;838;-72
2023/04/14 10:46:50;;;;;;;;;;;;;;;22.84;66.71;98973.66;5033752;28;798;-71
2023/04/14 10:49:17;;;;;;;;;;;;;;;22.99;67.11;98973.44;5033804;28;862;-71
2023/04/14 10:51:46;;;;;;;;;;;;;;;23.22;65.93;98963.03;5033736;28;841;-72
2023/04/14 10:54:19;;;;;;;;;;;;;;;23.21;66.47;98970.72;5015866;28;2168;-71
2023/04/14 10:57:13;;;;;;;;;;;;;;;23.33;65.32;98971.47;5033694;28;1911;-71
2023/04/14 10:59:44;;;;;;;;;;;;;;;23.34;64.54;98978.69;5032099;28;1172;-71
2023/04/14 11:02:27;;;;;;;;;;;;;;;23.11;65.21;98974.25;5033383;28;860;-72
2023/04/14 11:05:10;;;;;;;;;;;;;;;22.78;68.80;98968.00;5033559;28;902;-70
2023/04/14 11:07:39;;;;;;;;;;;;;;;23.14;67.08;98973.25;5033482;28;874;-68
2023/04/14 11:10:27;;;;;;;;;;;;;;;23.11;64.98;98979.88;5038566;28;1191;-71
2023/04/14 11:13:00;;;;;;;;;;;;;;;22.97;66.36;98990.09;5047628;28;1135;-71
2023/04/14 11:15:45;;;;;;;;;;;;;;;22.89;66.68;98997.50;5053490;28;1914;-71
2023/04/14 11:18:15;;;;;;;;;;;;;;;22.74;66.37;98997.69;5053190;28;889;-72
2023/04/14 11:20:42;;;;;;;;;;;;;;;22.47;65.89;99005.53;5053441;28;873;-72
2023/04/14 11:23:09;;;;;;;;;;;;;;;22.39;67.08;99012.91;5051840;28;1259;-71
2023/04/14 11:25:36;;;;;;;;;;;;;;;22.44;66.61;98998.06;5052987;28;900;-71
2023/04/14 11:28:02;;;;;;;;;;;;;;;22.72;65.25;99003.06;5053044;28;873;-74
2023/04/14 11:30:29;;;;;;;;;;;;;;;23.08;63.95;98997.84;5052946;28;834;-71
2023/04/14 11:32:56;;;;;;;;;;;;;;;23.21;64.13;98998.13;5052877;28;815;-71
2023/04/14 11:35:24;;;;;;;;;;;;;;;23.09;66.37;98999.38;5052851;28;1913;-71
2023/04/14 11:37:54;;;;;;;;;;;;;;;23.01;64.43;98988.59;5052757;28;885;-73
2023/04/14 11:40:21;;;;;;;;;;;;;;;22.78;65.97;98996.16;5051491;28;1261;-71
2023/04/14 11:42:55;;;;;;;;;;;;;;;22.68;65.76;98988.44;5052805;28;814;-71
2023/04/14 11:45:22;;;;;;;;;;;;;;;22.35;66.22;99001.09;5051877;28;1111;-70
2023/04/14 11:48:02;;;;;;;;;;;;;;;22.33;66.93;98986.75;5052898;28;901;-71
2023/04/14 11:50:30;;;;;;;;;;;;;;;22.42;67.20;98992.16;5050952;28;1304;-71
2023/04/14 11:52:58;;;;;;;;;;;;;;;22.59;67.10;98983.81;5052075;28;857;-70
2023/04/14 11:55:25;;;;;;;;;;;;;;;22.77;67.04;98991.06;5052405;28;1956;-72
2023/04/14 11:57:53;;;;;;;;;;;;;;;22.84;67.27;98990.56;5052427;28;959;-71
2023/04/14 12:00:19;;;;;;;;;;;;;;;22.91;67.60;98987.25;5052400;28;849;-71
2023/04/14 12:02:46;;;;;;;;;;;;;;;22.65;68.28;98986.66;5052329;28;809;-70
2023/04/14 12:05:17;;;;;;;;;;;;;;;22.89;67.68;98974.94;5052349;28;858;-70
2023/04/14 12:07:44;;;;;;;;;;;;;;;23.20;67.04;98971.22;5052522;28;954;-70
2023/04/14 12:10:12;;;;;;;;;;;;;;;23.47;66.14;98978.19;5052469;28;1230;-70
2023/04/14 12:12:45;;;;;;;;;;;;;;;23.60;66.21;98974.84;5051493;28;1188;-70
2023/04/14 12:15:12;;;;;;;;;;;;;;;24.40;64.42;98971.41;5052138;28;884;-71
2023/04/14 12:17:38;;;;;;;;;;;;;;;24.51;63.12;98981.16;5051961;28;1914;-70
2023/04/14 12:20:05;;;;;;;;;;;;;;;24.25;62.98;98982.97;5052099;28;805;-70
2023/04/14 12:22:31;;;;;;;;;;;;;;;24.16;63.96;98968.41;5052033;28;885;-71
2023/04/14 12:24:58;;;;;;;;;;;;;;;24.61;62.57;98969.03;5051962;28;849;-70
2023/04/14 12:27:25;;;;;;;;;;;;;;;24.43;63.28;98961.91;5051954;28;865;-71
2023/04/14 12:29:53;;;;;;;;;;;;;;;24.06;62.51;98965.06;5051902;28;877;-71
2023/04/14 12:32:21;;;;;;;;;;;;;;;23.70;65.23;98952.78;5051870;28;843;-71
2023/04/14 12:34:57;;;;;;;;;;;;;;;23.63;63.96;98952.00;5051832;28;874;-72
2023/04/14 12:37:30;;;;;;;;;;;;;;;23.42;65.17;98942.28;5051510;28;1977;-70
2023/04/14 12:40:00;;;;;;;;;;;;;;;23.16;65.68;98946.09;5052115;28;849;-71
2023/04/14 12:42:42;;;;;;;;;;;;;;;22.84;66.83;98945.50;5051706;28;826;-70
2023/04/14 12:45:09;;;;;;;;;;;;;;;22.68;67.25;98940.56;5051712;28;846;-72
2023/04/14 12:47:36;;;;;;;;;;;;;;;23.23;65.52;98927.91;5051615;28;857;-71
2023/04/14 12:50:22;;;;;;;;;;;;;;;23.42;65.30;98931.00;5051555;28;831;-70
2023/04/14 12:52:49;;;;;;;;;;;;;;;23.34;64.34;98933.56;5050925;28;1050;-72
2023/04/14 12:55:19;;;;;;;;;;;;;;;23.29;65.16;98923.03;5051494;28;872;-73
2023/04/14 12:57:49;;;;;;;;;;;;;;;23.35;64.12;98923.06;5051817;28;829;-73
2023/04/14 13:00:16;;;;;;;;;;;;;;;23.63;64.65;98929.44;5051726;28;858;-72
2023/04/14 13:02:42;;;;;;;;;;;;;;;24.37;62.31;98932.91;5049792;28;1271;-72
2023/04/14 13:05:09;;;;;;;;;;;;;;;25.08;61.44;98920.22;5051387;28;873;-74
2023/04/14 13:07:35;;;;;;;;;;;;;;;25.44;59.72;98923.06;5051874;28;794;-72
2023/04/14 13:10:02;;;;;;;;;;;;;;;24.96;59.20;98908.22;5051671;28;1214;-70
2023/04/14 13:12:29;;;;;;;;;;;;;;;24.69;61.51;98924.06;5051769;28;849;-69
2023/04/14 13:14:56;;;;;;;;;;;;;;;24.97;62.04;98920.31;5052009;28;778;-69
2023/04/14 13:17:23;;;;;;;;;;;;;;;25.62;58.33;98910.31;5050222;28;1969;-69
2023/04/14 13:19:50;;;;;;;;;;;;;;;25.75;58.82;98916.09;5051605;28;850;-69
2023/04/14 13:22:17;;;;;;;;;;;;;;;25.85;58.51;98917.28;5050000;28;1187;-69
2023/04/14 13:24:43;;;;;;;;;;;;;;;25.30;58.77;98912.91;5051569;28;806;-69
2023/04/14 13:27:10;;;;;;;;;;;;;;;25.09;58.62;98901.97;5051206;28;928;-70
2023/04/14 13:29:36;;;;;;;;;;;;;;;25.14;58.96;98906.06;5051235;28;830;-68
2023/04/14 13:32:07;;;;;;;;;;;;;;;25.29;58.28;98892.34;5051166;28;830;-69
2023/04/14 13:34:35;;;;;;;;;;;;;;;25.37;57.11;98896.13;5051377;28;869;-69
2023/04/14 13:37:01;;;;;;;;;;;;;;;24.69;57.32;98901.47;5051305;28;1952;-68
2023/04/14 13:39:27;;;;;;;;;;;;;;;23.82;59.88;98901.50;5051319;28;814;-68
2023/04/14 13:41:54;;;;;;;;;;;;;;;23.10;61.09;98910.72;5051414;28;838;-68
2023/04/14 13:44:21;;;;;;;;;;;;;;;22.68;62.73;98909.59;5051334;28;842;-69
2023/04/14 13:46:50;;;;;;;;;;;;;;;22.48;63.83;98914.13;5051230;28;791;-69